createdAt,value
2018-02-10T00:01:38.658Z,90.12
2018-02-10T00:04:04.951Z,90.36
2018-02-10T00:06:30.911Z,90.37
2018-02-10T00:08:56.922Z,89.77
2018-02-10T00:11:22.724Z,89.45
2018-02-10T00:13:48.562Z,89.88
2018-02-10T00:16:14.549Z,89.81
2018-02-10T00:18:40.701Z,89.96
2018-02-10T00:21:06.482Z,89.96
2018-02-10T00:23:33.178Z,90.25
2018-02-10T00:25:58.962Z,90.36
2018-02-10T00:28:25.298Z,90.57
2018-02-10T00:30:51.100Z,90.51
2018-02-10T00:33:18.025Z,90.00
2018-02-10T00:35:43.806Z,90.13
2018-02-10T00:38:10.091Z,90.12
2018-02-10T00:40:35.895Z,90.01
2018-02-10T00:43:02.313Z,90.11
2018-02-10T00:45:28.650Z,89.78
2018-02-10T00:47:54.561Z,89.71
2018-02-10T00:50:21.176Z,89.93
2018-02-10T00:52:46.975Z,89.75
2018-02-10T00:55:14.811Z,90.01
2018-02-10T00:57:41.545Z,90.25
2018-02-10T01:00:07.368Z,89.98
2018-02-10T01:02:33.681Z,90.27
2018-02-10T01:04:59.458Z,90.27
2018-02-10T01:07:26.034Z,90.35
2018-02-10T01:09:51.821Z,90.35
2018-02-10T01:12:18.374Z,90.67
2018-02-10T01:14:44.182Z,90.49
2018-02-10T01:17:11.231Z,90.82
2018-02-10T01:19:37.296Z,90.88
2018-02-10T01:22:03.660Z,90.93
2018-02-10T01:24:29.752Z,90.70
2018-02-10T01:26:55.571Z,91.06
2018-02-10T01:29:21.377Z,90.65
2018-02-10T01:31:47.627Z,90.94
2018-02-10T01:34:13.421Z,90.94
2018-02-10T01:36:39.745Z,90.82
2018-02-10T01:39:05.521Z,90.99
2018-02-10T01:41:31.874Z,91.09
2018-02-10T01:43:57.685Z,90.91
2018-02-10T01:46:24.905Z,90.54
2018-02-10T01:48:50.802Z,90.73
2018-02-10T01:51:17.022Z,91.18
2018-02-10T01:53:42.806Z,91.47
2018-02-10T01:56:09.401Z,91.22
2018-02-10T01:58:35.712Z,91.10
2018-02-10T02:01:01.667Z,91.40
2018-02-10T02:03:27.458Z,91.39
2018-02-10T02:05:53.876Z,91.28
2018-02-10T02:08:19.661Z,91.30
2018-02-10T02:10:45.759Z,91.73
2018-02-10T02:13:11.574Z,91.13
2018-02-10T02:15:38.187Z,90.95
2018-02-10T02:18:04.018Z,91.04
2018-02-10T02:20:30.226Z,91.41
2018-02-10T02:22:56.001Z,90.87
2018-02-10T02:25:23.003Z,90.95
2018-02-10T02:27:48.833Z,91.27
2018-02-10T02:30:14.971Z,91.30
2018-02-10T02:32:40.751Z,91.24
2018-02-10T02:35:07.699Z,90.81
2018-02-10T02:37:33.539Z,90.96
2018-02-10T02:39:59.905Z,91.20
2018-02-10T02:42:25.780Z,91.11
2018-02-10T02:44:51.652Z,91.39
2018-02-10T02:47:17.414Z,91.71
2018-02-10T02:49:43.994Z,91.69
2018-02-10T02:52:09.786Z,91.52
2018-02-10T02:54:35.802Z,91.16
2018-02-10T02:57:01.622Z,90.95
2018-02-10T02:59:27.394Z,91.01
2018-02-10T03:01:53.173Z,90.85
2018-02-10T03:04:19.062Z,90.85
2018-02-10T03:06:44.841Z,91.03
2018-02-10T03:09:10.608Z,90.82
2018-02-10T03:11:36.414Z,90.98
2018-02-10T03:14:02.208Z,90.41
2018-02-10T03:16:27.982Z,90.88
2018-02-10T03:18:53.817Z,91.00
2018-02-10T03:21:19.598Z,90.42
2018-02-10T03:23:45.370Z,89.48
2018-02-10T03:26:11.146Z,89.71
2018-02-10T03:28:36.935Z,91.11
2018-02-10T03:31:02.757Z,91.12
2018-02-10T03:33:28.525Z,91.19
2018-02-10T03:35:54.310Z,90.89
2018-02-10T03:38:20.101Z,91.03
2018-02-10T03:40:45.873Z,90.69
2018-02-10T03:43:11.689Z,90.93
2018-02-10T03:45:37.489Z,90.43
2018-02-10T03:48:03.273Z,90.50
2018-02-10T03:50:29.053Z,90.42
2018-02-10T03:52:55.005Z,90.72
2018-02-10T03:55:20.775Z,90.83
2018-02-10T03:57:46.556Z,91.18
2018-02-10T04:00:12.357Z,91.31
2018-02-10T04:02:38.129Z,91.28
2018-02-10T04:05:03.898Z,91.29
2018-02-10T04:07:29.798Z,91.26
2018-02-10T04:09:55.565Z,91.46
2018-02-10T04:12:21.337Z,91.06
2018-02-10T04:14:47.133Z,91.36
2018-02-10T04:17:12.922Z,91.06
2018-02-10T04:19:38.785Z,91.07
2018-02-10T04:22:04.591Z,90.92
2018-02-10T04:24:30.376Z,91.18
2018-02-10T04:26:56.161Z,91.22
2018-02-10T04:29:21.954Z,91.42
2018-02-10T04:31:47.736Z,91.34
2018-02-10T04:34:13.505Z,91.65
2018-02-10T04:36:39.534Z,91.49
2018-02-10T04:39:05.317Z,91.69
2018-02-10T04:41:31.088Z,91.38
2018-02-10T04:43:56.872Z,91.18
2018-02-10T04:46:22.643Z,91.35
2018-02-10T04:48:48.426Z,91.03
2018-02-10T04:51:14.210Z,90.37
2018-02-10T04:53:39.981Z,90.27
2018-02-10T04:56:05.750Z,89.85
2018-02-10T04:58:31.542Z,89.61
2018-02-10T05:00:57.367Z,89.77
2018-02-10T05:03:23.128Z,89.88
2018-02-10T05:05:49.143Z,89.55
2018-02-10T05:08:14.920Z,89.28
2018-02-10T05:10:40.685Z,89.74
2018-02-10T05:13:06.478Z,90.00
2018-02-10T05:15:32.250Z,90.23
2018-02-10T05:17:58.062Z,90.00
2018-02-10T05:20:23.870Z,90.38
2018-02-10T05:22:49.681Z,90.45
2018-02-10T05:25:15.440Z,89.92
2018-02-10T05:27:41.237Z,89.34
2018-02-10T05:30:07.027Z,89.17
2018-02-10T05:32:32.805Z,89.82
2018-02-10T05:34:58.863Z,89.85
2018-02-10T05:37:24.644Z,89.91
2018-02-10T05:39:50.405Z,89.60
2018-02-10T05:42:16.193Z,89.92
2018-02-10T05:44:41.966Z,89.76
2018-02-10T05:47:07.729Z,89.83
2018-02-10T05:49:33.517Z,90.00
2018-02-10T05:51:59.289Z,90.03
2018-02-10T05:54:25.062Z,89.61
2018-02-10T05:56:50.862Z,90.10
2018-02-10T05:59:16.642Z,89.58
2018-02-10T06:01:42.656Z,89.15
2018-02-10T06:04:08.439Z,89.77
2018-02-10T06:06:34.217Z,90.04
2018-02-10T06:08:59.998Z,89.90
2018-02-10T06:11:25.772Z,89.83
2018-02-10T06:13:51.550Z,89.96
2018-02-10T06:16:17.352Z,89.81
2018-02-10T06:18:43.123Z,90.00
2018-02-10T06:21:08.902Z,89.73
2018-02-10T06:23:34.918Z,89.84
2018-02-10T06:26:00.695Z,89.89
2018-02-10T06:28:26.458Z,89.03
2018-02-10T06:30:52.368Z,88.91
2018-02-10T06:33:18.139Z,89.83
2018-02-10T06:35:43.913Z,90.11
2018-02-10T06:38:09.706Z,90.27
2018-02-10T06:40:35.514Z,90.71
2018-02-10T06:43:01.318Z,90.72
2018-02-10T06:45:27.111Z,90.74
2018-02-10T06:47:52.881Z,90.80
2018-02-10T06:50:18.662Z,90.47
2018-02-10T06:52:44.454Z,90.32
2018-02-10T06:55:10.229Z,90.91
2018-02-10T06:57:35.998Z,90.84
2018-02-10T07:00:01.842Z,90.53
2018-02-10T07:02:27.621Z,90.35
2018-02-10T07:04:53.401Z,90.19
2018-02-10T07:07:19.187Z,89.55
2018-02-10T07:09:44.960Z,89.93
2018-02-10T07:12:10.729Z,90.63
2018-02-10T07:14:36.522Z,90.79
2018-02-10T07:17:02.320Z,90.85
2018-02-10T07:19:28.106Z,91.02
2018-02-10T07:21:54.095Z,90.79
2018-02-10T07:24:19.858Z,91.31
2018-02-10T07:26:45.638Z,91.21
2018-02-10T07:29:11.430Z,91.52
2018-02-10T07:31:37.197Z,91.11
2018-02-10T07:34:02.994Z,91.43
2018-02-10T07:36:28.800Z,91.33
2018-02-10T07:38:54.594Z,91.43
2018-02-10T07:41:20.373Z,91.29
2018-02-10T07:43:46.394Z,91.19
2018-02-10T07:46:12.185Z,91.50
2018-02-10T07:48:37.955Z,91.27
2018-02-10T07:51:04.873Z,91.46
2018-02-10T07:53:30.648Z,91.93
2018-02-10T07:55:56.421Z,92.24
2018-02-10T07:58:22.223Z,92.18
2018-02-10T08:00:48.014Z,92.43
2018-02-10T08:03:13.799Z,92.38
2018-02-10T08:05:39.789Z,92.60
2018-02-10T08:08:05.577Z,92.76
2018-02-10T08:10:31.358Z,92.58
2018-02-10T08:12:58.133Z,92.55
2018-02-10T08:15:23.897Z,92.43
2018-02-10T08:17:49.675Z,92.36
2018-02-10T08:20:15.834Z,91.87
2018-02-10T08:22:41.606Z,92.08
2018-02-10T08:25:07.380Z,91.91
2018-02-10T08:27:33.167Z,91.30
2018-02-10T08:29:58.936Z,91.67
2018-02-10T08:32:24.746Z,91.60
2018-02-10T08:34:50.871Z,91.33
2018-02-10T08:37:16.649Z,91.88
2018-02-10T08:39:42.422Z,91.36
2018-02-10T08:42:08.294Z,91.22
2018-02-10T08:44:34.081Z,91.29
2018-02-10T08:46:59.843Z,91.27
2018-02-10T08:49:25.625Z,91.21
2018-02-10T08:51:51.399Z,91.14
2018-02-10T08:54:17.196Z,91.19
2018-02-10T08:56:42.988Z,91.04
2018-02-10T08:59:08.781Z,90.52
2018-02-10T09:01:34.725Z,90.65
2018-02-10T09:04:00.771Z,90.72
2018-02-10T09:06:26.546Z,90.90
2018-02-10T09:08:52.326Z,90.52
2018-02-10T09:11:18.147Z,90.11
2018-02-10T09:13:43.966Z,90.14
2018-02-10T09:16:10.843Z,89.62
2018-02-10T09:18:36.698Z,90.04
2018-02-10T09:21:02.891Z,89.48
2018-02-10T09:23:28.675Z,88.91
2018-02-10T09:25:55.423Z,88.72
2018-02-10T09:28:21.267Z,88.95
2018-02-10T09:30:47.796Z,89.51
2018-02-10T09:33:13.607Z,89.52
2018-02-10T09:35:40.166Z,88.82
2018-02-10T09:38:06.012Z,88.36
2018-02-10T09:40:32.752Z,88.56
2018-02-10T09:42:58.539Z,87.96
2018-02-10T09:45:24.397Z,88.18
2018-02-10T09:47:52.818Z,87.78
2018-02-10T09:50:18.593Z,86.48
2018-02-10T09:52:44.917Z,86.33
2018-02-10T09:55:10.721Z,86.53
2018-02-10T09:57:37.127Z,85.53
2018-02-10T10:00:02.951Z,85.98
2018-02-10T10:02:29.744Z,85.43
2018-02-10T10:04:55.578Z,83.76
2018-02-10T10:07:22.385Z,83.52
2018-02-10T10:09:48.445Z,82.56
2018-02-10T10:12:14.719Z,83.05
2018-02-10T10:14:40.566Z,83.61
2018-02-10T10:17:06.329Z,91.15
2018-02-10T10:19:32.121Z,81.45
2018-02-10T10:21:58.229Z,82.92
2018-02-10T10:24:23.998Z,77.08
2018-02-10T10:26:49.784Z,75.40
2018-02-10T10:29:15.770Z,75.56
2018-02-10T10:31:41.548Z,74.75
2018-02-10T10:34:07.829Z,77.01
2018-02-10T10:36:34.780Z,78.11
2018-02-10T10:39:01.235Z,75.06
2018-02-10T10:41:27.270Z,73.44
2018-02-10T10:43:53.125Z,72.75
2018-02-10T10:46:19.134Z,71.39
2018-02-10T10:48:44.946Z,71.42
2018-02-10T10:51:10.939Z,70.80
2018-02-10T10:53:36.904Z,69.39
2018-02-10T10:56:02.713Z,68.67
2018-02-10T10:58:28.524Z,68.35
2018-02-10T11:00:54.468Z,69.23
2018-02-10T11:03:20.246Z,72.01
2018-02-10T11:05:46.330Z,72.19
2018-02-10T11:08:12.100Z,69.19
2018-02-10T11:10:37.967Z,69.07
2018-02-10T11:13:03.775Z,70.23
2018-02-10T11:15:29.669Z,71.06
2018-02-10T11:17:55.445Z,72.62
2018-02-10T11:20:21.656Z,70.65
2018-02-10T11:22:47.455Z,71.29
2018-02-10T11:25:13.237Z,71.70
2018-02-10T11:27:39.040Z,70.44
2018-02-10T11:30:04.895Z,71.56
2018-02-10T11:32:30.754Z,71.15
2018-02-10T11:34:56.586Z,71.32
2018-02-10T11:37:22.383Z,73.00
2018-02-10T11:39:48.193Z,73.46
2018-02-10T11:42:14.018Z,73.51
2018-02-10T11:44:39.805Z,72.64
2018-02-10T11:47:05.907Z,72.42
2018-02-10T11:49:31.998Z,72.16
2018-02-10T11:51:57.743Z,72.87
2018-02-10T11:54:23.541Z,72.39
2018-02-10T11:56:49.339Z,72.48
2018-02-10T11:59:15.347Z,72.33
2018-02-10T12:01:41.148Z,72.13
2018-02-10T12:04:07.008Z,72.00
2018-02-10T12:06:32.922Z,72.95
2018-02-10T12:08:58.803Z,71.69
2018-02-10T12:11:24.587Z,72.25
2018-02-10T12:13:50.359Z,71.68
2018-02-10T12:16:16.506Z,71.76
2018-02-10T12:18:42.678Z,71.09
2018-02-10T12:21:08.457Z,71.46
2018-02-10T12:23:34.262Z,71.45
2018-02-10T12:26:00.054Z,71.11
2018-02-10T12:28:26.062Z,71.75
2018-02-10T12:30:51.882Z,71.06
2018-02-10T12:33:17.689Z,71.18
2018-02-10T12:35:43.476Z,71.65
2018-02-10T12:38:09.497Z,70.83
2018-02-10T12:40:35.632Z,70.43
2018-02-10T12:43:01.668Z,69.84
2018-02-10T12:45:27.457Z,69.45
2018-02-10T12:47:59.501Z,70.77
2018-02-10T12:50:25.576Z,68.48
2018-02-10T12:52:51.375Z,68.77
2018-02-10T12:55:17.164Z,68.52
2018-02-10T12:57:43.036Z,68.96
2018-02-10T13:00:08.875Z,66.95
2018-02-10T13:02:34.930Z,65.64
2018-02-10T13:05:00.743Z,66.08
2018-02-10T13:07:26.558Z,64.62
2018-02-10T13:09:52.343Z,65.78
2018-02-10T13:12:18.128Z,66.94
2018-02-10T13:14:44.045Z,66.32
2018-02-10T13:17:09.873Z,66.20
2018-02-10T13:19:35.655Z,65.43
2018-02-10T13:22:01.668Z,66.80
2018-02-10T13:24:27.537Z,67.04
2018-02-10T13:26:53.363Z,66.84
2018-02-10T13:29:19.541Z,66.44
2018-02-10T13:31:45.314Z,66.88
2018-02-10T13:34:11.232Z,66.51
2018-02-10T13:36:37.136Z,65.47
2018-02-10T13:39:02.938Z,65.02
2018-02-10T13:41:28.734Z,63.50
2018-02-10T13:43:54.547Z,62.38
2018-02-10T13:46:20.362Z,62.45
2018-02-10T13:48:46.144Z,62.24
2018-02-10T13:51:11.940Z,61.00
2018-02-10T13:53:37.725Z,62.19
2018-02-10T13:56:03.642Z,66.19
2018-02-10T13:58:29.472Z,67.10
2018-02-10T14:00:55.262Z,67.17
2018-02-10T14:03:21.042Z,67.96
2018-02-10T14:05:46.822Z,67.11
2018-02-10T14:08:12.606Z,66.87
2018-02-10T14:10:38.427Z,66.48
2018-02-10T14:13:04.198Z,68.01
2018-02-10T14:15:29.984Z,68.27
2018-02-10T14:17:55.770Z,68.37
2018-02-10T14:20:21.545Z,67.63
2018-02-10T14:22:47.334Z,67.62
2018-02-10T14:25:13.110Z,67.79
2018-02-10T14:27:38.906Z,68.34
2018-02-10T14:30:05.019Z,69.48
2018-02-10T14:32:30.790Z,69.61
2018-02-10T14:34:56.562Z,69.56
2018-02-10T14:37:22.365Z,69.67
2018-02-10T14:39:48.138Z,70.59
2018-02-10T14:42:13.930Z,70.76
2018-02-10T14:44:39.715Z,71.84
2018-02-10T14:47:05.806Z,70.21
2018-02-10T14:49:31.602Z,71.84
2018-02-10T14:51:57.437Z,71.07
2018-02-10T14:54:23.551Z,71.63
2018-02-10T14:56:49.343Z,72.11
2018-02-10T14:59:15.126Z,71.74
2018-02-10T15:01:41.029Z,71.43
2018-02-10T15:04:06.806Z,70.99
2018-02-10T15:06:32.655Z,71.57
2018-02-10T15:08:58.446Z,71.45
2018-02-10T15:11:24.311Z,72.01
2018-02-10T15:13:50.087Z,71.50
2018-02-10T15:16:16.143Z,71.96
2018-02-10T15:18:41.935Z,72.67
2018-02-10T15:21:07.776Z,72.76
2018-02-10T15:23:33.623Z,72.25
2018-02-10T15:25:59.448Z,71.93
2018-02-10T15:28:25.227Z,72.31
2018-02-10T15:31:03.374Z,72.43
2018-02-10T15:33:41.733Z,73.24
2018-02-10T15:36:07.732Z,75.13
2018-02-10T15:38:33.504Z,73.86
2018-02-10T15:40:59.408Z,74.84
2018-02-10T15:43:25.540Z,73.45
2018-02-10T15:45:51.421Z,73.43
2018-02-10T15:48:17.217Z,72.65
2018-02-10T15:50:43.131Z,74.68
2018-02-10T15:53:09.199Z,75.53
2018-02-10T15:55:34.973Z,76.89
2018-02-10T15:58:00.766Z,77.79
2018-02-10T16:00:26.571Z,78.14
2018-02-10T16:02:54.102Z,77.66
2018-02-10T16:05:19.907Z,78.09
2018-02-10T16:07:45.689Z,78.73
2018-02-10T16:10:11.475Z,78.55
2018-02-10T16:12:37.357Z,78.68
2018-02-10T16:15:03.143Z,78.80
2018-02-10T16:17:28.915Z,78.80
2018-02-10T16:19:54.842Z,78.96
2018-02-10T16:22:20.696Z,78.82
2018-02-10T16:24:46.490Z,78.59
2018-02-10T16:27:12.678Z,78.78
2018-02-10T16:29:38.418Z,79.12
2018-02-10T16:32:04.196Z,79.05
2018-02-10T16:34:29.983Z,79.60
2018-02-10T16:36:55.766Z,79.97
2018-02-10T16:39:21.611Z,80.62
2018-02-10T16:41:47.406Z,80.41
2018-02-10T16:44:13.192Z,80.78
2018-02-10T16:46:38.978Z,81.60
2018-02-10T16:49:05.062Z,81.48
2018-02-10T16:51:30.854Z,82.71
2018-02-10T16:53:56.640Z,82.74
2018-02-10T16:56:22.584Z,83.22
2018-02-10T16:58:48.371Z,83.70
2018-02-10T17:01:14.214Z,84.16
2018-02-10T17:03:40.030Z,84.37
2018-02-10T17:06:05.822Z,84.83
2018-02-10T17:08:31.600Z,84.65
2018-02-10T17:10:57.386Z,85.03
2018-02-10T17:13:23.164Z,85.35
2018-02-10T17:15:48.962Z,84.92
2018-02-10T17:18:14.865Z,85.04
2018-02-10T17:20:40.709Z,85.39
2018-02-10T17:23:06.884Z,86.11
2018-02-10T17:25:32.709Z,86.23
2018-02-10T17:27:58.507Z,86.84
2018-02-10T17:30:24.275Z,86.98
2018-02-10T17:32:50.244Z,87.07
2018-02-10T17:35:16.069Z,87.42
2018-02-10T17:37:41.882Z,87.51
2018-02-10T17:40:07.684Z,87.43
2018-02-10T17:42:33.476Z,88.17
2018-02-10T17:44:59.263Z,88.61
2018-02-10T17:47:25.330Z,88.94
2018-02-10T17:49:51.154Z,88.87
2018-02-10T17:52:16.933Z,89.12
2018-02-10T17:54:42.747Z,89.38
2018-02-10T17:57:08.551Z,89.13
2018-02-10T17:59:34.400Z,89.01
2018-02-10T18:02:00.214Z,89.69
2018-02-10T18:04:26.003Z,89.95
2018-02-10T18:06:51.777Z,89.82
2018-02-10T18:09:17.571Z,89.90
2018-02-10T18:11:43.338Z,90.49
2018-02-10T18:14:09.121Z,90.85
2018-02-10T18:16:34.910Z,91.33
2018-02-10T18:19:00.701Z,91.46
2018-02-10T18:21:26.483Z,91.43
2018-02-10T18:23:52.346Z,91.42
2018-02-10T18:26:18.134Z,91.42
2018-02-10T18:28:43.918Z,91.41
2018-02-10T18:31:10.180Z,91.45
2018-02-10T18:33:36.014Z,91.79
2018-02-10T18:36:01.911Z,92.18
2018-02-10T18:38:27.770Z,92.72
2018-02-10T18:40:53.575Z,93.17
2018-02-10T18:43:19.573Z,93.35
2018-02-10T18:45:46.604Z,93.09
2018-02-10T18:48:12.479Z,93.66
2018-02-10T18:50:38.290Z,93.57
2018-02-10T18:53:04.072Z,94.22
2018-02-10T18:55:30.122Z,94.09
2018-02-10T18:57:56.531Z,94.42
2018-02-10T19:00:22.653Z,95.02
2018-02-10T19:02:48.444Z,94.66
2018-02-10T19:05:14.552Z,94.03
2018-02-10T19:07:40.369Z,94.35
2018-02-10T19:10:06.449Z,94.34
2018-02-10T19:12:32.343Z,94.25
2018-02-10T19:14:58.175Z,94.04
2018-02-10T19:17:23.953Z,93.89
2018-02-10T19:19:49.767Z,94.19
2018-02-10T19:22:15.886Z,93.66
2018-02-10T19:24:41.671Z,93.42
2018-02-10T19:27:07.672Z,93.39
2018-02-10T19:29:33.506Z,93.55
2018-02-10T19:31:59.287Z,93.14
2018-02-10T19:34:25.097Z,92.78
2018-02-10T19:36:50.887Z,92.78
2018-02-10T19:39:17.219Z,92.80
2018-02-10T19:41:43.490Z,92.79
2018-02-10T19:44:09.604Z,92.78
2018-02-10T19:46:35.633Z,92.75
2018-02-10T19:49:02.020Z,92.59
2018-02-10T19:51:28.145Z,92.89
2018-02-10T19:53:54.619Z,92.75
2018-02-10T19:56:20.578Z,93.03
2018-02-10T19:58:46.890Z,92.62
2018-02-10T20:01:12.918Z,93.04
2018-02-10T20:03:39.455Z,92.99
2018-02-10T20:06:05.246Z,93.15
2018-02-10T20:08:31.377Z,92.96
2018-02-10T20:10:57.782Z,93.11
2018-02-10T20:13:23.860Z,93.03
2018-02-10T20:15:49.798Z,93.92
2018-02-10T20:18:16.243Z,92.80
2018-02-10T20:20:42.382Z,92.84
2018-02-10T20:23:08.511Z,93.50
2018-02-10T20:25:34.689Z,93.52
2018-02-10T20:28:00.612Z,93.00
2018-02-10T20:30:26.555Z,92.52
2018-02-10T20:32:53.214Z,92.02
2018-02-10T20:35:19.130Z,92.10
2018-02-10T20:37:45.219Z,92.03
2018-02-10T20:40:11.458Z,92.17
2018-02-10T20:42:37.242Z,91.86
2018-02-10T20:45:03.106Z,91.75
2018-02-10T20:47:29.013Z,91.43
2018-02-10T20:49:54.797Z,91.62
2018-02-10T20:52:20.565Z,91.53
2018-02-10T20:54:47.091Z,91.26
2018-02-10T20:57:12.878Z,91.26
2018-02-10T20:59:38.692Z,91.63
2018-02-10T21:02:04.515Z,91.37
2018-02-10T21:04:30.350Z,91.61
2018-02-10T21:06:56.152Z,91.83
2018-02-10T21:09:21.966Z,91.85
2018-02-10T21:11:47.751Z,91.98
2018-02-10T21:14:13.564Z,92.01
2018-02-10T21:16:39.346Z,92.39
2018-02-10T21:19:05.269Z,92.23
2018-02-10T21:21:31.058Z,92.16
2018-02-10T21:23:56.834Z,92.35
2018-02-10T21:26:22.635Z,91.85
2018-02-10T21:28:48.446Z,89.96
2018-02-10T21:31:14.227Z,87.28
2018-02-10T21:33:40.022Z,84.94
2018-02-10T21:36:05.816Z,86.41
2018-02-10T21:38:31.625Z,87.97
2018-02-10T21:40:57.418Z,89.90
2018-02-10T21:43:23.440Z,90.47
2018-02-10T21:45:49.218Z,91.05
2018-02-10T21:48:14.999Z,92.02
2018-02-10T21:50:40.779Z,91.92
2018-02-10T21:53:06.584Z,92.36
2018-02-10T21:55:32.377Z,92.78
2018-02-10T21:57:58.172Z,92.78
2018-02-10T22:00:23.992Z,92.81
2018-02-10T22:02:49.782Z,92.53
2018-02-10T22:05:17.681Z,92.62
2018-02-10T22:07:43.894Z,92.58
2018-02-10T22:10:09.750Z,92.83
2018-02-10T22:12:35.988Z,92.20
2018-02-10T22:15:01.773Z,92.38
2018-02-10T22:17:27.969Z,92.41
2018-02-10T22:19:53.749Z,93.04
2018-02-10T22:22:19.517Z,93.19
2018-02-10T22:24:45.374Z,92.69
2018-02-10T22:27:11.150Z,92.64
2018-02-10T22:29:37.888Z,92.96
2018-02-10T22:32:03.687Z,93.35
2018-02-10T22:34:29.938Z,93.85
2018-02-10T22:36:55.717Z,94.05
2018-02-10T22:39:21.862Z,94.31
2018-02-10T22:41:47.693Z,94.44
2018-02-10T22:44:14.663Z,94.56
2018-02-10T22:46:40.434Z,95.23
2018-02-10T22:49:06.377Z,95.03
2018-02-10T22:51:32.195Z,94.73
2018-02-10T22:53:58.622Z,94.10
2018-02-10T22:56:24.446Z,93.44
2018-02-10T22:58:50.958Z,94.23
2018-02-10T23:01:16.753Z,94.82
2018-02-10T23:03:43.513Z,94.37
2018-02-10T23:06:09.307Z,94.62
2018-02-10T23:08:35.681Z,94.48
2018-02-10T23:11:01.462Z,94.82
2018-02-10T23:13:27.252Z,94.42
2018-02-10T23:15:53.033Z,94.13
2018-02-10T23:18:18.869Z,94.41
2018-02-10T23:20:44.660Z,94.90
2018-02-10T23:23:12.748Z,95.17
2018-02-10T23:25:38.560Z,95.15
2018-02-10T23:28:04.717Z,95.39
2018-02-10T23:30:30.693Z,95.48
2018-02-10T23:32:56.771Z,95.79
2018-02-10T23:35:29.834Z,95.91
2018-02-10T23:37:55.631Z,96.03
2018-02-10T23:40:21.646Z,96.26
2018-02-10T23:42:47.458Z,95.90
2018-02-10T23:45:13.707Z,95.72
2018-02-10T23:47:39.494Z,96.04
2018-02-10T23:50:05.818Z,95.85
2018-02-10T23:52:31.585Z,96.23
2018-02-10T23:54:57.781Z,96.10
2018-02-10T23:57:23.575Z,96.18
2018-02-10T23:59:49.538Z,96.16
